Wind From: 11-12-2017 07:30 Until: 12-12-2017 06:00 warning for: Wind Level: Orange info button

Power and phone distribution networks may be disrupted for relatively long periods., Roofs and chimneys can be damaged. , Tree branches may break. , Vehicles can be deported. , Traffic may be disrupted, particularly on secondary roads in forest areas. Limit your trips. , Limit your speed in highway driving, especially if you drive a vehicle or hitch sensitive to wind. , Do not go for walks in forests or along the coast., In town, be vigilant against possible falling objects., Do not work on roofs and do not touch any electrical line fallen on the ground., Store or secure sensitive objects to wind or likely to be damaged., Always install power generators outside buildings. 


Meteo18 Weather Cam more information Meteo18 Weather Cam


Thunder radar more information blitzortung!


Rain radar more information rain snow radar


Visit our other weather sites:

Template documentation
and downloads

And another site



Weather Underground History page Text

Daily Summary for January 13, 2017 Units:  Both    English   Metric
« Previous Day
Next Day »
Daily Weekly Monthly Yearly Custom
  High: Low: Average:
Temperature: 42.6 °F /  5.9 °C 32.7 °F /  0.4 °C 36.7 °F /  2.6 °C
Dew Point: 35.6 °F /  2.0 °C 30.2 °F /  -1.0 °C 32.4 °F /  0.2 °C
Humidity: 96 % 74 % 84 %
Wind Speed: 24 mph /  38.6 km/h - 7.9 mph /  12.7 km/h
Wind Gust: 37 mph /  59.5 km/h - -
Wind:- - West
Pressure: 30.1 in /  1017.5 hPa 29.7 in /  1006.3 hPa -
Precipitation: 0.03 in /  0.8 mm    
Historical Graphs
 
 
Tabular Data for January 13, 2017
Time Temperature Dew Point Pressure Wind Wind Speed Wind Gust Humidity Rainfall Rate (Hourly)
00:02 42.6 °F /  5.9 °C 35.6 °F /  2.0 °C 29.7 in /  1006.3 hPa WNW 22 mph /  35.4 km/h 32 mph /  51.5 km/h 76 % 0 in /  0.0 mm
00:12 42.4 °F /  5.8 °C 35.4 °F /  1.9 °C 29.7 in /  1006.7 hPa West 14 mph /  22.5 km/h 30 mph /  48.3 km/h 76 % 0 in /  0.0 mm
00:22 42.1 °F /  5.6 °C 35.1 °F /  1.7 °C 29.7 in /  1006.7 hPa West 19 mph /  30.6 km/h 26 mph /  41.8 km/h 76 % 0 in /  0.0 mm
00:27 41.7 °F /  5.4 °C 34.7 °F /  1.5 °C 29.7 in /  1006.7 hPa West 10 mph /  16.1 km/h 29 mph /  46.7 km/h 76 % 0 in /  0.0 mm
00:32 41.5 °F /  5.3 °C 34.2 °F /  1.2 °C 29.7 in /  1007.0 hPa WNW 10 mph /  16.1 km/h 29 mph /  46.7 km/h 75 % 0 in /  0.0 mm
00:42 41.2 °F /  5.1 °C 34.5 °F /  1.4 °C 29.7 in /  1007.3 hPa West 10 mph /  16.1 km/h 33 mph /  53.1 km/h 77 % 0 in /  0.0 mm
00:52 40.8 °F /  4.9 °C 33.8 °F /  1.0 °C 29.8 in /  1007.7 hPa WNW 11 mph /  17.7 km/h 37 mph /  59.5 km/h 76 % 0 in /  0.0 mm
01:02 40.5 °F /  4.7 °C 32.9 °F /  0.5 °C 29.8 in /  1008.0 hPa West 10 mph /  16.1 km/h 28 mph /  45.1 km/h 74 % 0 in /  0.0 mm
01:12 39.9 °F /  4.4 °C 32.7 °F /  0.4 °C 29.8 in /  1008.0 hPa West 14 mph /  22.5 km/h 32 mph /  51.5 km/h 75 % 0 in /  0.0 mm
01:22 39.7 °F /  4.3 °C 33.1 °F /  0.6 °C 29.8 in /  1008.4 hPa WNW 12 mph /  19.3 km/h 23 mph /  37.0 km/h 77 % 0 in /  0.0 mm
01:27 39.7 °F /  4.3 °C 33.4 °F /  0.8 °C 29.8 in /  1008.4 hPa WSW 9 mph /  14.5 km/h 23 mph /  37.0 km/h 78 % 0 in /  0.0 mm
01:37 39 °F /  3.9 °C 34.3 °F /  1.3 °C 29.8 in /  1008.4 hPa WNW 8 mph /  12.9 km/h 21 mph /  33.8 km/h 83 % 0 in /  0.0 mm
01:42 38.8 °F /  3.8 °C 34.2 °F /  1.2 °C 29.8 in /  1008.4 hPa West 8 mph /  12.9 km/h 21 mph /  33.8 km/h 83 % 0 in /  0.0 mm
01:52 38.7 °F /  3.7 °C 34.2 °F /  1.2 °C 29.8 in /  1008.4 hPa West 17 mph /  27.4 km/h 27 mph /  43.4 km/h 84 % 0 in /  0.0 mm
01:57 38.7 °F /  3.7 °C 34.2 °F /  1.2 °C 29.8 in /  1008.7 hPa West 8 mph /  12.9 km/h 27 mph /  43.4 km/h 84 % 0 in /  0.0 mm
02:02 38.7 °F /  3.7 °C 34.2 °F /  1.2 °C 29.8 in /  1008.7 hPa West 11 mph /  17.7 km/h 27 mph /  43.4 km/h 84 % 0 in /  0.0 mm
02:12 38.7 °F /  3.7 °C 33.6 °F /  0.9 °C 29.8 in /  1009.0 hPa WSW 9 mph /  14.5 km/h 20 mph /  32.2 km/h 82 % 0 in /  0.0 mm
02:17 38.7 °F /  3.7 °C 33.6 °F /  0.9 °C 29.8 in /  1008.7 hPa WSW 10 mph /  16.1 km/h 24 mph /  38.6 km/h 82 % 0 in /  0.0 mm
02:22 38.7 °F /  3.7 °C 33.6 °F /  0.9 °C 29.8 in /  1009.0 hPa WNW 8 mph /  12.9 km/h 24 mph /  38.6 km/h 82 % 0 in /  0.0 mm
02:32 38.3 °F /  3.5 °C 33.3 °F /  0.7 °C 29.8 in /  1009.4 hPa West 12 mph /  19.3 km/h 21 mph /  33.8 km/h 82 % 0 in /  0.0 mm
02:37 38.1 °F /  3.4 °C 33.1 °F /  0.6 °C 29.8 in /  1009.4 hPa WNW 14 mph /  22.5 km/h 21 mph /  33.8 km/h 82 % 0 in /  0.0 mm
02:42 38.1 °F /  3.4 °C 32.7 °F /  0.4 °C 29.8 in /  1009.4 hPa West 9 mph /  14.5 km/h 19 mph /  30.6 km/h 81 % 0 in /  0.0 mm
02:52 37.9 °F /  3.3 °C 32.9 °F /  0.5 °C 29.8 in /  1009.4 hPa West 18 mph /  29.0 km/h 23 mph /  37.0 km/h 82 % 0 in /  0.0 mm
02:57 37.9 °F /  3.3 °C 32.9 °F /  0.5 °C 29.8 in /  1009.4 hPa West 6 mph /  9.7 km/h 23 mph /  37.0 km/h 82 % 0 in /  0.0 mm
03:02 37.8 °F /  3.2 °C 32.7 °F /  0.4 °C 29.8 in /  1009.4 hPa West 6 mph /  9.7 km/h 21 mph /  33.8 km/h 82 % 0 in /  0.0 mm
03:07 37.8 °F /  3.2 °C 33.1 °F /  0.6 °C 29.8 in /  1009.4 hPa West 10 mph /  16.1 km/h 21 mph /  33.8 km/h 83 % 0 in /  0.0 mm
03:12 37.8 °F /  3.2 °C 33.1 °F /  0.6 °C 29.8 in /  1009.4 hPa West 12 mph /  19.3 km/h 17 mph /  27.4 km/h 83 % 0 in /  0.0 mm
03:17 37.8 °F /  3.2 °C 33.1 °F /  0.6 °C 29.8 in /  1009.4 hPa WSW 9 mph /  14.5 km/h 17 mph /  27.4 km/h 83 % 0 in /  0.0 mm
03:22 37.8 °F /  3.2 °C 32.7 °F /  0.4 °C 29.8 in /  1009.4 hPa WSW 9 mph /  14.5 km/h 21 mph /  33.8 km/h 82 % 0 in /  0.0 mm
03:27 37.6 °F /  3.1 °C 32.5 °F /  0.3 °C 29.8 in /  1009.4 hPa West 13 mph /  20.9 km/h 21 mph /  33.8 km/h 82 % 0 in /  0.0 mm
03:32 37.6 °F /  3.1 °C 32.5 °F /  0.3 °C 29.8 in /  1009.7 hPa West 13 mph /  20.9 km/h 21 mph /  33.8 km/h 82 % 0 in /  0.0 mm
03:37 37.6 °F /  3.1 °C 32.4 °F /  0.2 °C 29.8 in /  1009.7 hPa WSW 7 mph /  11.3 km/h 22 mph /  35.4 km/h 81 % 0 in /  0.0 mm
03:42 37.2 °F /  2.9 °C 31.6 °F /  -0.2 °C 29.8 in /  1009.7 hPa West 13 mph /  20.9 km/h 22 mph /  35.4 km/h 80 % 0 in /  0.0 mm
03:47 37.2 °F /  2.9 °C 32 °F /  0.0 °C 29.8 in /  1010.0 hPa WNW 7 mph /  11.3 km/h 22 mph /  35.4 km/h 81 % 0 in /  0.0 mm
03:52 36.9 °F /  2.7 °C 31.6 °F /  -0.2 °C 29.8 in /  1010.0 hPa WSW 11 mph /  17.7 km/h 18 mph /  29.0 km/h 81 % 0 in /  0.0 mm
04:02 36.7 °F /  2.6 °C 31.6 °F /  -0.2 °C 29.8 in /  1010.0 hPa WNW 9 mph /  14.5 km/h 18 mph /  29.0 km/h 82 % 0 in /  0.0 mm
04:12 36.7 °F /  2.6 °C 32 °F /  0.0 °C 29.8 in /  1010.0 hPa WNW 17 mph /  27.4 km/h 19 mph /  30.6 km/h 83 % 0 in /  0.0 mm
04:17 36.3 °F /  2.4 °C 31.6 °F /  -0.2 °C 29.8 in /  1010.0 hPa WNW 8 mph /  12.9 km/h 19 mph /  30.6 km/h 83 % 0 in /  0.0 mm
04:22 36.1 °F /  2.3 °C 31.8 °F /  -0.1 °C 29.8 in /  1010.0 hPa West 16 mph /  25.7 km/h 19 mph /  30.6 km/h 84 % 0 in /  0.0 mm
04:32 36.1 °F /  2.3 °C 32 °F /  0.0 °C 29.8 in /  1010.0 hPa WSW 6 mph /  9.7 km/h 22 mph /  35.4 km/h 85 % 0 in /  0.0 mm
04:37 36 °F /  2.2 °C 31.8 °F /  -0.1 °C 29.8 in /  1010.0 hPa West 24 mph /  38.6 km/h 24 mph /  38.6 km/h 85 % 0 in /  0.0 mm
04:42 36 °F /  2.2 °C 32.2 °F /  0.1 °C 29.8 in /  1010.0 hPa West 6 mph /  9.7 km/h 26 mph /  41.8 km/h 86 % 0 in /  0.0 mm
04:47 35.8 °F /  2.1 °C 31.6 °F /  -0.2 °C 29.8 in /  1009.7 hPa WNW 7 mph /  11.3 km/h 26 mph /  41.8 km/h 85 % 0 in /  0.0 mm
04:52 35.6 °F /  2.0 °C 31.5 °F /  -0.3 °C 29.8 in /  1009.7 hPa West 8 mph /  12.9 km/h 26 mph /  41.8 km/h 85 % 0 in /  0.0 mm
04:57 35.6 °F /  2.0 °C 31.5 °F /  -0.3 °C 29.8 in /  1009.7 hPa WSW 17 mph /  27.4 km/h 26 mph /  41.8 km/h 85 % 0 in /  0.0 mm
05:02 35.4 °F /  1.9 °C 31.3 °F /  -0.4 °C 29.8 in /  1009.7 hPa West 10 mph /  16.1 km/h 21 mph /  33.8 km/h 85 % 0 in /  0.0 mm
05:07 35.4 °F /  1.9 °C 31.3 °F /  -0.4 °C 29.8 in /  1010.0 hPa West 12 mph /  19.3 km/h 21 mph /  33.8 km/h 85 % 0 in /  0.0 mm
05:12 35.4 °F /  1.9 °C 31.6 °F /  -0.2 °C 29.8 in /  1010.0 hPa WNW 10 mph /  16.1 km/h 19 mph /  30.6 km/h 86 % 0 in /  0.0 mm
05:17 35.4 °F /  1.9 °C 31.6 °F /  -0.2 °C 29.8 in /  1010.0 hPa West 4 mph /  6.4 km/h 19 mph /  30.6 km/h 86 % 0 in /  0.0 mm
05:22 35.6 °F /  2.0 °C 31.8 °F /  -0.1 °C 29.8 in /  1010.0 hPa WNW 11 mph /  17.7 km/h 19 mph /  30.6 km/h 86 % 0 in /  0.0 mm
05:32 35.4 °F /  1.9 °C 31.6 °F /  -0.2 °C 29.8 in /  1010.0 hPa WNW 11 mph /  17.7 km/h 20 mph /  32.2 km/h 86 % 0 in /  0.0 mm
05:37 35.4 °F /  1.9 °C 31.3 °F /  -0.4 °C 29.8 in /  1010.0 hPa WNW 6 mph /  9.7 km/h 20 mph /  32.2 km/h 85 % 0 in /  0.0 mm
05:42 35.4 °F /  1.9 °C 31.3 °F /  -0.4 °C 29.8 in /  1010.0 hPa West 8 mph /  12.9 km/h 18 mph /  29.0 km/h 85 % 0 in /  0.0 mm
05:47 35.4 °F /  1.9 °C 31.6 °F /  -0.2 °C 29.8 in /  1010.4 hPa West 8 mph /  12.9 km/h 18 mph /  29.0 km/h 86 % 0 in /  0.0 mm
05:52 35.4 °F /  1.9 °C 31.3 °F /  -0.4 °C 29.8 in /  1010.4 hPa WSW 10 mph /  16.1 km/h 18 mph /  29.0 km/h 85 % 0 in /  0.0 mm
05:57 35.4 °F /  1.9 °C 31.3 °F /  -0.4 °C 29.8 in /  1010.4 hPa West 5 mph /  8.0 km/h 18 mph /  29.0 km/h 85 % 0 in /  0.0 mm
06:02 35.4 °F /  1.9 °C 31.3 °F /  -0.4 °C 29.8 in /  1010.4 hPa West 11 mph /  17.7 km/h 18 mph /  29.0 km/h 85 % 0 in /  0.0 mm
06:07 35.6 °F /  2.0 °C 31.5 °F /  -0.3 °C 29.8 in /  1010.7 hPa WSW 12 mph /  19.3 km/h 19 mph /  30.6 km/h 85 % 0 in /  0.0 mm
06:12 35.6 °F /  2.0 °C 31.5 °F /  -0.3 °C 29.8 in /  1010.7 hPa West 8 mph /  12.9 km/h 19 mph /  30.6 km/h 85 % 0 in /  0.0 mm
06:17 35.4 °F /  1.9 °C 31.3 °F /  -0.4 °C 29.8 in /  1010.7 hPa West 8 mph /  12.9 km/h 21 mph /  33.8 km/h 85 % 0 in /  0.0 mm
06:22 35.2 °F /  1.8 °C 31.5 °F /  -0.3 °C 29.8 in /  1010.7 hPa WSW 12 mph /  19.3 km/h 21 mph /  33.8 km/h 86 % 0 in /  0.0 mm
06:27 35.2 °F /  1.8 °C 31.5 °F /  -0.3 °C 29.8 in /  1010.7 hPa WSW 8 mph /  12.9 km/h 21 mph /  33.8 km/h 86 % 0 in /  0.0 mm
06:32 35.2 °F /  1.8 °C 31.5 °F /  -0.3 °C 29.8 in /  1010.7 hPa West 12 mph /  19.3 km/h 14 mph /  22.5 km/h 86 % 0 in /  0.0 mm
06:37 35.2 °F /  1.8 °C 31.8 °F /  -0.1 °C 29.8 in /  1010.7 hPa West 7 mph /  11.3 km/h 14 mph /  22.5 km/h 87 % 0 in /  0.0 mm
06:42 35.2 °F /  1.8 °C 31.8 °F /  -0.1 °C 29.8 in /  1010.7 hPa WNW 6 mph /  9.7 km/h 14 mph /  22.5 km/h 87 % 0 in /  0.0 mm
06:47 35.2 °F /  1.8 °C 31.8 °F /  -0.1 °C 29.8 in /  1010.7 hPa West 15 mph /  24.1 km/h 15 mph /  24.1 km/h 87 % 0 in /  0.0 mm
06:57 35.1 °F /  1.7 °C 31.6 °F /  -0.2 °C 29.8 in /  1010.7 hPa WSW 9 mph /  14.5 km/h 18 mph /  29.0 km/h 87 % 0 in /  0.0 mm
07:02 34.9 °F /  1.6 °C 31.5 °F /  -0.3 °C 29.8 in /  1010.7 hPa WSW 11 mph /  17.7 km/h 18 mph /  29.0 km/h 87 % 0 in /  0.0 mm
07:12 34.9 °F /  1.6 °C 31.6 °F /  -0.2 °C 29.8 in /  1010.7 hPa West 7 mph /  11.3 km/h 15 mph /  24.1 km/h 88 % 0 in /  0.0 mm
07:17 34.7 °F /  1.5 °C 31.5 °F /  -0.3 °C 29.9 in /  1011.1 hPa SW 12 mph /  19.3 km/h 15 mph /  24.1 km/h 88 % 0 in /  0.0 mm
07:22 34.7 °F /  1.5 °C 31.5 °F /  -0.3 °C 29.9 in /  1011.1 hPa West 5 mph /  8.0 km/h 15 mph /  24.1 km/h 88 % 0 in /  0.0 mm
07:27 34.5 °F /  1.4 °C 31.6 °F /  -0.2 °C 29.9 in /  1011.1 hPa WSW 11 mph /  17.7 km/h 15 mph /  24.1 km/h 89 % 0 in /  0.0 mm
07:32 34.3 °F /  1.3 °C 31.6 °F /  -0.2 °C 29.9 in /  1011.1 hPa West 9 mph /  14.5 km/h 15 mph /  24.1 km/h 90 % 0 in /  0.0 mm
07:37 34.2 °F /  1.2 °C 31.8 °F /  -0.1 °C 29.9 in /  1011.1 hPa WSW 9 mph /  14.5 km/h 15 mph /  24.1 km/h 91 % 0 in /  0.0 mm
07:42 34 °F /  1.1 °C 31.6 °F /  -0.2 °C 29.9 in /  1011.1 hPa WSW 7 mph /  11.3 km/h 15 mph /  24.1 km/h 91 % 0 in /  0.0 mm
07:47 34 °F /  1.1 °C 31.8 °F /  -0.1 °C 29.9 in /  1011.1 hPa West 11 mph /  17.7 km/h 13 mph /  20.9 km/h 92 % 0 in /  0.0 mm
07:52 34 °F /  1.1 °C 31.8 °F /  -0.1 °C 29.9 in /  1011.1 hPa WSW 6 mph /  9.7 km/h 12 mph /  19.3 km/h 92 % 0 in /  0.0 mm
07:57 34.2 °F /  1.2 °C 31.8 °F /  -0.1 °C 29.9 in /  1011.1 hPa WSW 6 mph /  9.7 km/h 13 mph /  20.9 km/h 91 % 0 in /  0.0 mm
08:02 34.2 °F /  1.2 °C 31.8 °F /  -0.1 °C 29.9 in /  1011.1 hPa WSW 7 mph /  11.3 km/h 13 mph /  20.9 km/h 91 % 0 in /  0.0 mm
08:07 34.2 °F /  1.2 °C 31.8 °F /  -0.1 °C 29.9 in /  1011.1 hPa WSW 4 mph /  6.4 km/h 13 mph /  20.9 km/h 91 % 0 in /  0.0 mm
08:12 34.2 °F /  1.2 °C 31.8 °F /  -0.1 °C 29.9 in /  1011.1 hPa West 8 mph /  12.9 km/h 14 mph /  22.5 km/h 91 % 0 in /  0.0 mm
08:17 34 °F /  1.1 °C 31.8 °F /  -0.1 °C 29.9 in /  1011.1 hPa WSW 6 mph /  9.7 km/h 14 mph /  22.5 km/h 92 % 0 in /  0.0 mm
08:22 33.4 °F /  0.8 °C 31.6 °F /  -0.2 °C 29.9 in /  1011.1 hPa WSW 4 mph /  6.4 km/h 14 mph /  22.5 km/h 93 % 0 in /  0.0 mm
08:32 33.1 °F /  0.6 °C 31.5 °F /  -0.3 °C 29.9 in /  1011.1 hPa SSW 1 mph /  1.6 km/h 13 mph /  20.9 km/h 94 % 0 in /  0.0 mm
08:37 32.9 °F /  0.5 °C 31.6 °F /  -0.2 °C 29.9 in /  1011.1 hPa West 3 mph /  4.8 km/h 12 mph /  19.3 km/h 95 % 0 in /  0.0 mm
08:42 32.7 °F /  0.4 °C 31.5 °F /  -0.3 °C 29.9 in /  1011.1 hPa WSW 5 mph /  8.0 km/h 10 mph /  16.1 km/h 95 % 0 in /  0.0 mm
08:52 32.7 °F /  0.4 °C 31.5 °F /  -0.3 °C 29.9 in /  1011.1 hPa WSW 6 mph /  9.7 km/h 10 mph /  16.1 km/h 95 % 0 in /  0.0 mm
08:57 32.7 °F /  0.4 °C 31.5 °F /  -0.3 °C 29.9 in /  1011.1 hPa WSW 3 mph /  4.8 km/h 12 mph /  19.3 km/h 95 % 0 in /  0.0 mm
09:02 32.7 °F /  0.4 °C 31.6 °F /  -0.2 °C 29.9 in /  1011.1 hPa West 3 mph /  4.8 km/h 12 mph /  19.3 km/h 96 % 0 in /  0.0 mm
09:07 32.7 °F /  0.4 °C 31.6 °F /  -0.2 °C 29.9 in /  1011.1 hPa West 5 mph /  8.0 km/h 10 mph /  16.1 km/h 96 % 0 in /  0.0 mm
09:12 32.7 °F /  0.4 °C 31.6 °F /  -0.2 °C 29.9 in /  1011.4 hPa West 4 mph /  6.4 km/h 11 mph /  17.7 km/h 96 % 0 in /  0.0 mm
09:17 32.7 °F /  0.4 °C 31.6 °F /  -0.2 °C 29.9 in /  1011.4 hPa WSW 5 mph /  8.0 km/h 11 mph /  17.7 km/h 96 % 0 in /  0.0 mm
09:22 32.9 °F /  0.5 °C 31.8 °F /  -0.1 °C 29.9 in /  1011.4 hPa West 6 mph /  9.7 km/h 11 mph /  17.7 km/h 96 % 0 in /  0.0 mm
09:27 33.1 °F /  0.6 °C 31.8 °F /  -0.1 °C 29.9 in /  1011.4 hPa West 6 mph /  9.7 km/h 11 mph /  17.7 km/h 95 % 0 in /  0.0 mm
09:32 33.1 °F /  0.6 °C 31.8 °F /  -0.1 °C 29.9 in /  1011.4 hPa WNW 6 mph /  9.7 km/h 11 mph /  17.7 km/h 95 % 0 in /  0.0 mm
09:37 33.1 °F /  0.6 °C 31.8 °F /  -0.1 °C 29.9 in /  1011.4 hPa SW 2 mph /  3.2 km/h 10 mph /  16.1 km/h 95 % 0 in /  0.0 mm
09:42 33.3 °F /  0.7 °C 32 °F /  0.0 °C 29.9 in /  1011.7 hPa West 4 mph /  6.4 km/h 10 mph /  16.1 km/h 95 % 0 in /  0.0 mm
09:47 33.3 °F /  0.7 °C 32 °F /  0.0 °C 29.9 in /  1011.7 hPa WSW 6 mph /  9.7 km/h 10 mph /  16.1 km/h 95 % 0 in /  0.0 mm
09:52 33.3 °F /  0.7 °C 32 °F /  0.0 °C 29.9 in /  1011.7 hPa WNW 2 mph /  3.2 km/h 9 mph /  14.5 km/h 95 % 0 in /  0.0 mm
09:57 33.4 °F /  0.8 °C 32.2 °F /  0.1 °C 29.9 in /  1011.7 hPa SW 1 mph /  1.6 km/h 9 mph /  14.5 km/h 95 % 0 in /  0.0 mm
10:02 33.4 °F /  0.8 °C 31.8 °F /  -0.1 °C 29.9 in /  1011.7 hPa West 2 mph /  3.2 km/h 7 mph /  11.3 km/h 94 % 0 in /  0.0 mm
10:12 33.6 °F /  0.9 °C 32 °F /  0.0 °C 29.9 in /  1011.7 hPa Calm   6 mph /  9.7 km/h 94 % 0 in /  0.0 mm
10:17 33.8 °F /  1.0 °C 32.2 °F /  0.1 °C 29.9 in /  1011.7 hPa Calm   6 mph /  9.7 km/h 94 % 0 in /  0.0 mm
10:22 34 °F /  1.1 °C 32.4 °F /  0.2 °C 29.9 in /  1011.7 hPa SW 5 mph /  8.0 km/h 5 mph /  8.0 km/h 94 % 0 in /  0.0 mm
10:32 34.2 °F /  1.2 °C 32.4 °F /  0.2 °C 29.9 in /  1011.7 hPa WNW 7 mph /  11.3 km/h 9 mph /  14.5 km/h 93 % 0 in /  0.0 mm
10:37 34.3 °F /  1.3 °C 32.5 °F /  0.3 °C 29.9 in /  1011.7 hPa WSW 2 mph /  3.2 km/h 9 mph /  14.5 km/h 93 % 0.01 in /  0.3 mm
10:42 34.3 °F /  1.3 °C 32.5 °F /  0.3 °C 29.9 in /  1011.7 hPa West 6 mph /  9.7 km/h 12 mph /  19.3 km/h 93 % 0.01 in /  0.3 mm
10:52 34.3 °F /  1.3 °C 32.5 °F /  0.3 °C 29.9 in /  1011.7 hPa WNW 3 mph /  4.8 km/h 10 mph /  16.1 km/h 93 % 0.01 in /  0.3 mm
10:57 34.3 °F /  1.3 °C 32.5 °F /  0.3 °C 29.9 in /  1011.7 hPa West 9 mph /  14.5 km/h 10 mph /  16.1 km/h 93 % 0.01 in /  0.3 mm
11:02 34.3 °F /  1.3 °C 32.5 °F /  0.3 °C 29.9 in /  1011.7 hPa WNW 5 mph /  8.0 km/h 14 mph /  22.5 km/h 93 % 0.01 in /  0.3 mm
11:07 34.5 °F /  1.4 °C 32.7 °F /  0.4 °C 29.9 in /  1011.7 hPa WSW 4 mph /  6.4 km/h 17 mph /  27.4 km/h 93 % 0.02 in /  0.5 mm
11:12 34.5 °F /  1.4 °C 32.7 °F /  0.4 °C 29.9 in /  1012.1 hPa WNW 3 mph /  4.8 km/h 17 mph /  27.4 km/h 93 % 0.02 in /  0.5 mm
11:17 34.5 °F /  1.4 °C 32.7 °F /  0.4 °C 29.9 in /  1012.1 hPa WNW 8 mph /  12.9 km/h 17 mph /  27.4 km/h 93 % 0.02 in /  0.5 mm
11:22 34.7 °F /  1.5 °C 32.5 °F /  0.3 °C 29.9 in /  1012.1 hPa West 4 mph /  6.4 km/h 12 mph /  19.3 km/h 92 % 0.02 in /  0.5 mm
11:32 34.9 °F /  1.6 °C 32.7 °F /  0.4 °C 29.9 in /  1012.4 hPa WSW 5 mph /  8.0 km/h 12 mph /  19.3 km/h 92 % 0.01 in /  0.3 mm
11:42 35.1 °F /  1.7 °C 32.9 °F /  0.5 °C 29.9 in /  1012.4 hPa WNW 3 mph /  4.8 km/h 16 mph /  25.7 km/h 92 % 0.01 in /  0.3 mm
11:52 35.1 °F /  1.7 °C 32.9 °F /  0.5 °C 29.9 in /  1012.1 hPa NW 6 mph /  9.7 km/h 13 mph /  20.9 km/h 92 % 0.01 in /  0.3 mm
11:57 35.2 °F /  1.8 °C 33.1 °F /  0.6 °C 29.9 in /  1012.4 hPa WNW 9 mph /  14.5 km/h 13 mph /  20.9 km/h 92 % 0.01 in /  0.3 mm
12:02 35.4 °F /  1.9 °C 33.3 °F /  0.7 °C 29.9 in /  1012.4 hPa NW 4 mph /  6.4 km/h 13 mph /  20.9 km/h 92 % 0 in /  0.0 mm
12:12 35.8 °F /  2.1 °C 33.6 °F /  0.9 °C 29.9 in /  1012.4 hPa NW 2 mph /  3.2 km/h 14 mph /  22.5 km/h 92 % 0 in /  0.0 mm
12:17 35.8 °F /  2.1 °C 33.4 °F /  0.8 °C 29.9 in /  1012.4 hPa WNW 10 mph /  16.1 km/h 14 mph /  22.5 km/h 91 % 0 in /  0.0 mm
12:22 35.8 °F /  2.1 °C 33.6 °F /  0.9 °C 29.9 in /  1012.4 hPa WNW 10 mph /  16.1 km/h 14 mph /  22.5 km/h 92 % 0 in /  0.0 mm
12:32 35.8 °F /  2.1 °C 33.6 °F /  0.9 °C 29.9 in /  1012.8 hPa NNW 5 mph /  8.0 km/h 15 mph /  24.1 km/h 92 % 0 in /  0.0 mm
12:37 36 °F /  2.2 °C 33.8 °F /  1.0 °C 29.9 in /  1012.8 hPa WNW 10 mph /  16.1 km/h 18 mph /  29.0 km/h 92 % 0 in /  0.0 mm
12:42 36 °F /  2.2 °C 33.6 °F /  0.9 °C 29.9 in /  1012.8 hPa WNW 7 mph /  11.3 km/h 18 mph /  29.0 km/h 91 % 0 in /  0.0 mm
12:47 36.1 °F /  2.3 °C 33.8 °F /  1.0 °C 29.9 in /  1012.8 hPa WNW 10 mph /  16.1 km/h 18 mph /  29.0 km/h 91 % 0 in /  0.0 mm
12:57 36.3 °F /  2.4 °C 33.6 °F /  0.9 °C 29.9 in /  1012.8 hPa NW 10 mph /  16.1 km/h 19 mph /  30.6 km/h 90 % 0 in /  0.0 mm
13:02 36.5 °F /  2.5 °C 33.8 °F /  1.0 °C 29.9 in /  1012.8 hPa North 6 mph /  9.7 km/h 19 mph /  30.6 km/h 90 % 0 in /  0.0 mm
13:07 36.5 °F /  2.5 °C 33.6 °F /  0.9 °C 29.9 in /  1012.8 hPa West 11 mph /  17.7 km/h 17 mph /  27.4 km/h 89 % 0 in /  0.0 mm
13:12 36.9 °F /  2.7 °C 34 °F /  1.1 °C 29.9 in /  1012.8 hPa SW 14 mph /  22.5 km/h 17 mph /  27.4 km/h 89 % 0 in /  0.0 mm
13:17 37.4 °F /  3.0 °C 34.5 °F /  1.4 °C 29.9 in /  1012.8 hPa NW 9 mph /  14.5 km/h 17 mph /  27.4 km/h 89 % 0 in /  0.0 mm
13:22 37.9 °F /  3.3 °C 35.1 °F /  1.7 °C 29.9 in /  1012.8 hPa NW 7 mph /  11.3 km/h 14 mph /  22.5 km/h 89 % 0 in /  0.0 mm
13:27 38.1 °F /  3.4 °C 34.3 °F /  1.3 °C 29.9 in /  1012.8 hPa NW 16 mph /  25.7 km/h 16 mph /  25.7 km/h 86 % 0 in /  0.0 mm
13:32 38.5 °F /  3.6 °C 34.3 °F /  1.3 °C 29.9 in /  1012.8 hPa NW 5 mph /  8.0 km/h 19 mph /  30.6 km/h 85 % 0 in /  0.0 mm
13:37 38.8 °F /  3.8 °C 34.7 °F /  1.5 °C 29.9 in /  1012.8 hPa West 9 mph /  14.5 km/h 19 mph /  30.6 km/h 85 % 0 in /  0.0 mm
13:42 38.8 °F /  3.8 °C 34.2 °F /  1.2 °C 29.9 in /  1012.8 hPa NNW 9 mph /  14.5 km/h 21 mph /  33.8 km/h 83 % 0 in /  0.0 mm
13:52 38.7 °F /  3.7 °C 34 °F /  1.1 °C 29.9 in /  1012.8 hPa NW 7 mph /  11.3 km/h 22 mph /  35.4 km/h 83 % 0 in /  0.0 mm
13:57 38.8 °F /  3.8 °C 33.4 °F /  0.8 °C 29.9 in /  1012.8 hPa NW 8 mph /  12.9 km/h 22 mph /  35.4 km/h 81 % 0 in /  0.0 mm
14:02 38.8 °F /  3.8 °C 33.3 °F /  0.7 °C 29.9 in /  1012.8 hPa WNW 9 mph /  14.5 km/h 23 mph /  37.0 km/h 80 % 0 in /  0.0 mm
14:07 39.2 °F /  4.0 °C 33.6 °F /  0.9 °C 29.9 in /  1013.1 hPa NW 3 mph /  4.8 km/h 23 mph /  37.0 km/h 80 % 0 in /  0.0 mm
14:12 39.4 °F /  4.1 °C 33.1 °F /  0.6 °C 29.9 in /  1013.1 hPa WNW 11 mph /  17.7 km/h 23 mph /  37.0 km/h 78 % 0 in /  0.0 mm
14:17 39.4 °F /  4.1 °C 33.8 °F /  1.0 °C 29.9 in /  1013.1 hPa WNW 10 mph /  16.1 km/h 21 mph /  33.8 km/h 80 % 0 in /  0.0 mm
14:22 39.6 °F /  4.2 °C 33.3 °F /  0.7 °C 29.9 in /  1013.1 hPa NNE 6 mph /  9.7 km/h 17 mph /  27.4 km/h 78 % 0 in /  0.0 mm
14:27 39.4 °F /  4.1 °C 33.1 °F /  0.6 °C 29.9 in /  1013.4 hPa NNW 14 mph /  22.5 km/h 17 mph /  27.4 km/h 78 % 0 in /  0.0 mm
14:32 39.6 °F /  4.2 °C 33.3 °F /  0.7 °C 29.9 in /  1013.4 hPa WNW 20 mph /  32.2 km/h 20 mph /  32.2 km/h 78 % 0.01 in /  0.3 mm
14:37 39.4 °F /  4.1 °C 33.4 °F /  0.8 °C 29.9 in /  1013.4 hPa WNW 5 mph /  8.0 km/h 20 mph /  32.2 km/h 79 % 0.01 in /  0.3 mm
14:42 39.6 °F /  4.2 °C 33.3 °F /  0.7 °C 29.9 in /  1013.4 hPa NNW 9 mph /  14.5 km/h 20 mph /  32.2 km/h 78 % 0.01 in /  0.3 mm
14:47 39.6 °F /  4.2 °C 33.3 °F /  0.7 °C 29.9 in /  1013.4 hPa WNW 8 mph /  12.9 km/h 20 mph /  32.2 km/h 78 % 0.01 in /  0.3 mm
14:52 39.4 °F /  4.1 °C 32.7 °F /  0.4 °C 29.9 in /  1013.8 hPa WNW 7 mph /  11.3 km/h 15 mph /  24.1 km/h 77 % 0.01 in /  0.3 mm
14:57 37.9 °F /  3.3 °C 33.6 °F /  0.9 °C 29.9 in /  1013.8 hPa NW 15 mph /  24.1 km/h 20 mph /  32.2 km/h 84 % 0.01 in /  0.3 mm
15:02 36.1 °F /  2.3 °C 33.4 °F /  0.8 °C 29.9 in /  1013.8 hPa WNW 15 mph /  24.1 km/h 35 mph /  56.3 km/h 90 % 0.01 in /  0.3 mm
15:07 35.8 °F /  2.1 °C 33.4 °F /  0.8 °C 29.9 in /  1014.1 hPa WNW 7 mph /  11.3 km/h 35 mph /  56.3 km/h 91 % 0.01 in /  0.3 mm
15:12 35.8 °F /  2.1 °C 33.4 °F /  0.8 °C 29.9 in /  1013.8 hPa West 10 mph /  16.1 km/h 23 mph /  37.0 km/h 91 % 0.01 in /  0.3 mm
15:17 35.8 °F /  2.1 °C 33.4 °F /  0.8 °C 29.9 in /  1014.1 hPa West 3 mph /  4.8 km/h 18 mph /  29.0 km/h 91 % 0.01 in /  0.3 mm
15:22 35.6 °F /  2.0 °C 33.3 °F /  0.7 °C 29.9 in /  1014.1 hPa West 10 mph /  16.1 km/h 18 mph /  29.0 km/h 91 % 0.01 in /  0.3 mm
15:27 35.1 °F /  1.7 °C 32.9 °F /  0.5 °C 30 in /  1014.4 hPa WNW 4 mph /  6.4 km/h 20 mph /  32.2 km/h 92 % 0.02 in /  0.5 mm
15:32 34.9 °F /  1.6 °C 32.7 °F /  0.4 °C 30 in /  1014.4 hPa West 6 mph /  9.7 km/h 20 mph /  32.2 km/h 92 % 0.01 in /  0.3 mm
15:37 34.9 °F /  1.6 °C 33.1 °F /  0.6 °C 30 in /  1014.4 hPa WNW 5 mph /  8.0 km/h 20 mph /  32.2 km/h 93 % 0.01 in /  0.3 mm
15:42 35.4 °F /  1.9 °C 33.3 °F /  0.7 °C 30 in /  1014.4 hPa WNW 4 mph /  6.4 km/h 11 mph /  17.7 km/h 92 % 0.01 in /  0.3 mm
15:47 36.1 °F /  2.3 °C 33.4 °F /  0.8 °C 30 in /  1014.4 hPa West 2 mph /  3.2 km/h 12 mph /  19.3 km/h 90 % 0.01 in /  0.3 mm
15:52 36.5 °F /  2.5 °C 33.6 °F /  0.9 °C 30 in /  1014.4 hPa WNW 5 mph /  8.0 km/h 12 mph /  19.3 km/h 89 % 0.01 in /  0.3 mm
15:57 36.9 °F /  2.7 °C 33.4 °F /  0.8 °C 30 in /  1014.4 hPa WNW 8 mph /  12.9 km/h 12 mph /  19.3 km/h 87 % 0.01 in /  0.3 mm
16:07 37.6 °F /  3.1 °C 33.4 °F /  0.8 °C 30 in /  1014.4 hPa West 7 mph /  11.3 km/h 12 mph /  19.3 km/h 85 % 0.01 in /  0.3 mm
16:12 37.6 °F /  3.1 °C 33.3 °F /  0.7 °C 30 in /  1014.4 hPa WNW 11 mph /  17.7 km/h 14 mph /  22.5 km/h 84 % 0.01 in /  0.3 mm
16:17 37.6 °F /  3.1 °C 32.9 °F /  0.5 °C 30 in /  1014.4 hPa WNW 9 mph /  14.5 km/h 15 mph /  24.1 km/h 83 % 0.01 in /  0.3 mm
16:22 37.8 °F /  3.2 °C 32.7 °F /  0.4 °C 30 in /  1014.4 hPa West 6 mph /  9.7 km/h 15 mph /  24.1 km/h 82 % 0.01 in /  0.3 mm
16:32 37.8 °F /  3.2 °C 31.8 °F /  -0.1 °C 30 in /  1014.8 hPa WNW 12 mph /  19.3 km/h 17 mph /  27.4 km/h 79 % 0 in /  0.0 mm
16:37 37.9 °F /  3.3 °C 31.6 °F /  -0.2 °C 30 in /  1014.8 hPa SW 15 mph /  24.1 km/h 17 mph /  27.4 km/h 78 % 0 in /  0.0 mm
16:42 37.9 °F /  3.3 °C 31.6 °F /  -0.2 °C 30 in /  1014.8 hPa NNW 7 mph /  11.3 km/h 18 mph /  29.0 km/h 78 % 0 in /  0.0 mm
16:52 37.9 °F /  3.3 °C 31.5 °F /  -0.3 °C 30 in /  1014.8 hPa WNW 2 mph /  3.2 km/h 19 mph /  30.6 km/h 77 % 0 in /  0.0 mm
16:57 37.8 °F /  3.2 °C 31.3 °F /  -0.4 °C 30 in /  1014.8 hPa WNW 7 mph /  11.3 km/h 19 mph /  30.6 km/h 77 % 0 in /  0.0 mm
17:02 37.6 °F /  3.1 °C 31.3 °F /  -0.4 °C 30 in /  1015.1 hPa WNW 9 mph /  14.5 km/h 18 mph /  29.0 km/h 78 % 0 in /  0.0 mm
17:07 37.4 °F /  3.0 °C 31.1 °F /  -0.5 °C 30 in /  1014.8 hPa WNW 7 mph /  11.3 km/h 18 mph /  29.0 km/h 78 % 0 in /  0.0 mm
17:12 37.2 °F /  2.9 °C 30.9 °F /  -0.6 °C 30 in /  1015.1 hPa WNW 9 mph /  14.5 km/h 17 mph /  27.4 km/h 78 % 0 in /  0.0 mm
17:17 36.9 °F /  2.7 °C 30.9 °F /  -0.6 °C 30 in /  1014.8 hPa WNW 8 mph /  12.9 km/h 17 mph /  27.4 km/h 79 % 0 in /  0.0 mm
17:22 36.7 °F /  2.6 °C 31.1 °F /  -0.5 °C 30 in /  1014.8 hPa WNW 5 mph /  8.0 km/h 17 mph /  27.4 km/h 80 % 0 in /  0.0 mm
17:32 36.1 °F /  2.3 °C 30.9 °F /  -0.6 °C 30 in /  1014.8 hPa WNW 8 mph /  12.9 km/h 12 mph /  19.3 km/h 81 % 0 in /  0.0 mm
17:37 36.1 °F /  2.3 °C 30.9 °F /  -0.6 °C 30 in /  1014.8 hPa WNW 8 mph /  12.9 km/h 13 mph /  20.9 km/h 81 % 0 in /  0.0 mm
17:42 36.3 °F /  2.4 °C 31.1 °F /  -0.5 °C 30 in /  1014.8 hPa NW 8 mph /  12.9 km/h 15 mph /  24.1 km/h 81 % 0 in /  0.0 mm
17:52 36.3 °F /  2.4 °C 31.1 °F /  -0.5 °C 30 in /  1014.8 hPa WSW 6 mph /  9.7 km/h 18 mph /  29.0 km/h 81 % 0 in /  0.0 mm
17:57 36.5 °F /  2.5 °C 30.9 °F /  -0.6 °C 30 in /  1015.1 hPa WSW 6 mph /  9.7 km/h 18 mph /  29.0 km/h 80 % 0 in /  0.0 mm
18:02 36.5 °F /  2.5 °C 30.9 °F /  -0.6 °C 30 in /  1015.1 hPa West 5 mph /  8.0 km/h 18 mph /  29.0 km/h 80 % 0 in /  0.0 mm
18:07 36.7 °F /  2.6 °C 30.7 °F /  -0.7 °C 30 in /  1015.1 hPa WNW 9 mph /  14.5 km/h 15 mph /  24.1 km/h 79 % 0 in /  0.0 mm
18:12 36.9 °F /  2.7 °C 30.9 °F /  -0.6 °C 30 in /  1015.1 hPa WNW 8 mph /  12.9 km/h 17 mph /  27.4 km/h 79 % 0 in /  0.0 mm
18:17 37 °F /  2.8 °C 30.7 °F /  -0.7 °C 30 in /  1015.1 hPa WNW 1 mph /  1.6 km/h 17 mph /  27.4 km/h 78 % 0 in /  0.0 mm
18:22 37 °F /  2.8 °C 30.7 °F /  -0.7 °C 30 in /  1015.1 hPa NW 4 mph /  6.4 km/h 17 mph /  27.4 km/h 78 % 0 in /  0.0 mm
18:27 37 °F /  2.8 °C 30.6 °F /  -0.8 °C 30 in /  1015.1 hPa NW 8 mph /  12.9 km/h 16 mph /  25.7 km/h 77 % 0 in /  0.0 mm
18:32 37.2 °F /  2.9 °C 30.7 °F /  -0.7 °C 30 in /  1015.1 hPa WNW 9 mph /  14.5 km/h 17 mph /  27.4 km/h 77 % 0 in /  0.0 mm
18:37 37.2 °F /  2.9 °C 30.4 °F /  -0.9 °C 30 in /  1015.1 hPa WNW 7 mph /  11.3 km/h 17 mph /  27.4 km/h 76 % 0 in /  0.0 mm
18:42 37.4 °F /  3.0 °C 30.6 °F /  -0.8 °C 30 in /  1015.1 hPa WNW 8 mph /  12.9 km/h 17 mph /  27.4 km/h 76 % 0 in /  0.0 mm
18:47 37.6 °F /  3.1 °C 30.4 °F /  -0.9 °C 30 in /  1015.1 hPa WSW 12 mph /  19.3 km/h 14 mph /  22.5 km/h 75 % 0 in /  0.0 mm
18:52 37.8 °F /  3.2 °C 30.6 °F /  -0.8 °C 30 in /  1015.1 hPa West 5 mph /  8.0 km/h 16 mph /  25.7 km/h 75 % 0 in /  0.0 mm
18:57 37.8 °F /  3.2 °C 30.2 °F /  -1.0 °C 30 in /  1015.5 hPa WNW 9 mph /  14.5 km/h 16 mph /  25.7 km/h 74 % 0 in /  0.0 mm
19:02 37.8 °F /  3.2 °C 30.2 °F /  -1.0 °C 30 in /  1015.5 hPa West 7 mph /  11.3 km/h 16 mph /  25.7 km/h 74 % 0 in /  0.0 mm
19:07 37.9 °F /  3.3 °C 30.4 °F /  -0.9 °C 30 in /  1015.5 hPa West 6 mph /  9.7 km/h 14 mph /  22.5 km/h 74 % 0 in /  0.0 mm
19:12 37.9 °F /  3.3 °C 30.4 °F /  -0.9 °C 30 in /  1015.5 hPa WSW 10 mph /  16.1 km/h 15 mph /  24.1 km/h 74 % 0 in /  0.0 mm
19:17 38.1 °F /  3.4 °C 30.6 °F /  -0.8 °C 30 in /  1015.5 hPa WNW 7 mph /  11.3 km/h 16 mph /  25.7 km/h 74 % 0 in /  0.0 mm
19:22 38.1 °F /  3.4 °C 30.9 °F /  -0.6 °C 30 in /  1015.5 hPa West 10 mph /  16.1 km/h 21 mph /  33.8 km/h 75 % 0 in /  0.0 mm
19:27 38.1 °F /  3.4 °C 30.9 °F /  -0.6 °C 30 in /  1015.5 hPa West 9 mph /  14.5 km/h 21 mph /  33.8 km/h 75 % 0 in /  0.0 mm
19:32 37.9 °F /  3.3 °C 31.1 °F /  -0.5 °C 30 in /  1015.5 hPa West 12 mph /  19.3 km/h 21 mph /  33.8 km/h 76 % 0 in /  0.0 mm
19:37 37.9 °F /  3.3 °C 31.1 °F /  -0.5 °C 30 in /  1015.5 hPa West 10 mph /  16.1 km/h 21 mph /  33.8 km/h 76 % 0 in /  0.0 mm
19:42 37.9 °F /  3.3 °C 31.1 °F /  -0.5 °C 30 in /  1015.5 hPa WNW 8 mph /  12.9 km/h 21 mph /  33.8 km/h 76 % 0 in /  0.0 mm
19:47 37.9 °F /  3.3 °C 31.1 °F /  -0.5 °C 30 in /  1015.5 hPa West 11 mph /  17.7 km/h 18 mph /  29.0 km/h 76 % 0 in /  0.0 mm
19:52 37.9 °F /  3.3 °C 31.1 °F /  -0.5 °C 30 in /  1015.5 hPa WNW 17 mph /  27.4 km/h 18 mph /  29.0 km/h 76 % 0 in /  0.0 mm
19:57 37.9 °F /  3.3 °C 31.5 °F /  -0.3 °C 30 in /  1015.5 hPa WSW 10 mph /  16.1 km/h 22 mph /  35.4 km/h 77 % 0 in /  0.0 mm
20:02 37.8 °F /  3.2 °C 31.5 °F /  -0.3 °C 30 in /  1015.5 hPa West 13 mph /  20.9 km/h 22 mph /  35.4 km/h 78 % 0 in /  0.0 mm
20:12 37.4 °F /  3.0 °C 32.2 °F /  0.1 °C 30 in /  1015.8 hPa West 12 mph /  19.3 km/h 20 mph /  32.2 km/h 81 % 0 in /  0.0 mm
20:17 37.2 °F /  2.9 °C 32 °F /  0.0 °C 30 in /  1015.8 hPa West 10 mph /  16.1 km/h 19 mph /  30.6 km/h 81 % 0 in /  0.0 mm
20:22 37.2 °F /  2.9 °C 32 °F /  0.0 °C 30 in /  1015.8 hPa WSW 11 mph /  17.7 km/h 18 mph /  29.0 km/h 81 % 0 in /  0.0 mm
20:27 37.2 °F /  2.9 °C 32 °F /  0.0 °C 30 in /  1015.8 hPa WSW 12 mph /  19.3 km/h 18 mph /  29.0 km/h 81 % 0 in /  0.0 mm
20:32 37.2 °F /  2.9 °C 32.2 °F /  0.1 °C 30 in /  1015.8 hPa West 7 mph /  11.3 km/h 19 mph /  30.6 km/h 82 % 0 in /  0.0 mm
20:37 37 °F /  2.8 °C 32 °F /  0.0 °C 30 in /  1015.8 hPa WNW 7 mph /  11.3 km/h 19 mph /  30.6 km/h 82 % 0 in /  0.0 mm
20:42 37 °F /  2.8 °C 32.4 °F /  0.2 °C 30 in /  1015.8 hPa NNW 8 mph /  12.9 km/h 19 mph /  30.6 km/h 83 % 0 in /  0.0 mm
20:47 36.9 °F /  2.7 °C 32.2 °F /  0.1 °C 30 in /  1015.8 hPa West 9 mph /  14.5 km/h 19 mph /  30.6 km/h 83 % 0 in /  0.0 mm
20:52 36.9 °F /  2.7 °C 32.2 °F /  0.1 °C 30 in /  1015.8 hPa West 6 mph /  9.7 km/h 19 mph /  30.6 km/h 83 % 0 in /  0.0 mm
20:57 36.9 °F /  2.7 °C 32.2 °F /  0.1 °C 30 in /  1015.8 hPa West 9 mph /  14.5 km/h 13 mph /  20.9 km/h 83 % 0 in /  0.0 mm
21:02 37 °F /  2.8 °C 32.4 °F /  0.2 °C 30 in /  1015.8 hPa West 6 mph /  9.7 km/h 13 mph /  20.9 km/h 83 % 0 in /  0.0 mm
21:12 37 °F /  2.8 °C 32.4 °F /  0.2 °C 30 in /  1015.8 hPa WNW 4 mph /  6.4 km/h 13 mph /  20.9 km/h 83 % 0 in /  0.0 mm
21:17 37.2 °F /  2.9 °C 32.2 °F /  0.1 °C 30 in /  1016.1 hPa WNW 9 mph /  14.5 km/h 15 mph /  24.1 km/h 82 % 0 in /  0.0 mm
21:22 37.4 °F /  3.0 °C 32.2 °F /  0.1 °C 30 in /  1016.1 hPa WNW 11 mph /  17.7 km/h 15 mph /  24.1 km/h 81 % 0 in /  0.0 mm
21:32 37.6 °F /  3.1 °C 32.4 °F /  0.2 °C 30 in /  1016.1 hPa WNW 4 mph /  6.4 km/h 15 mph /  24.1 km/h 81 % 0 in /  0.0 mm
21:37 37.6 °F /  3.1 °C 32.4 °F /  0.2 °C 30 in /  1016.1 hPa West 3 mph /  4.8 km/h 13 mph /  20.9 km/h 81 % 0 in /  0.0 mm
21:42 37.8 °F /  3.2 °C 32.2 °F /  0.1 °C 30 in /  1016.1 hPa WNW 8 mph /  12.9 km/h 11 mph /  17.7 km/h 80 % 0 in /  0.0 mm
21:47 37.9 °F /  3.3 °C 32 °F /  0.0 °C 30 in /  1016.1 hPa WNW 7 mph /  11.3 km/h 11 mph /  17.7 km/h 79 % 0 in /  0.0 mm
21:52 37.9 °F /  3.3 °C 32.4 °F /  0.2 °C 30 in /  1016.1 hPa WNW 7 mph /  11.3 km/h 12 mph /  19.3 km/h 80 % 0 in /  0.0 mm
21:57 37.9 °F /  3.3 °C 32.4 °F /  0.2 °C 30 in /  1016.1 hPa West 5 mph /  8.0 km/h 12 mph /  19.3 km/h 80 % 0 in /  0.0 mm
22:02 37.9 °F /  3.3 °C 32 °F /  0.0 °C 30 in /  1016.1 hPa West 6 mph /  9.7 km/h 12 mph /  19.3 km/h 79 % 0 in /  0.0 mm
22:12 37.9 °F /  3.3 °C 32 °F /  0.0 °C 30 in /  1016.5 hPa WSW 4 mph /  6.4 km/h 10 mph /  16.1 km/h 79 % 0 in /  0.0 mm
22:17 37.9 °F /  3.3 °C 32.4 °F /  0.2 °C 30 in /  1016.5 hPa WNW 7 mph /  11.3 km/h 11 mph /  17.7 km/h 80 % 0 in /  0.0 mm
22:22 37.9 °F /  3.3 °C 32 °F /  0.0 °C 30 in /  1016.5 hPa WSW 4 mph /  6.4 km/h 11 mph /  17.7 km/h 79 % 0 in /  0.0 mm
22:32 37.9 °F /  3.3 °C 32 °F /  0.0 °C 30 in /  1016.5 hPa West 3 mph /  4.8 km/h 11 mph /  17.7 km/h 79 % 0 in /  0.0 mm
22:37 37.9 °F /  3.3 °C 32.4 °F /  0.2 °C 30 in /  1016.5 hPa SW 8 mph /  12.9 km/h 11 mph /  17.7 km/h 80 % 0 in /  0.0 mm
22:42 37.9 °F /  3.3 °C 32.4 °F /  0.2 °C 30 in /  1016.5 hPa WSW 3 mph /  4.8 km/h 11 mph /  17.7 km/h 80 % 0 in /  0.0 mm
22:47 37.8 °F /  3.2 °C 32.2 °F /  0.1 °C 30 in /  1016.8 hPa West 3 mph /  4.8 km/h 10 mph /  16.1 km/h 80 % 0 in /  0.0 mm
22:52 37.8 °F /  3.2 °C 32.2 °F /  0.1 °C 30 in /  1016.8 hPa WNW 4 mph /  6.4 km/h 10 mph /  16.1 km/h 80 % 0 in /  0.0 mm
22:57 37.6 °F /  3.1 °C 32.4 °F /  0.2 °C 30 in /  1016.8 hPa North 1 mph /  1.6 km/h 10 mph /  16.1 km/h 81 % 0 in /  0.0 mm
23:02 37.6 °F /  3.1 °C 32 °F /  0.0 °C 30 in /  1017.2 hPa West 3 mph /  4.8 km/h 7 mph /  11.3 km/h 80 % 0 in /  0.0 mm
23:12 37.8 °F /  3.2 °C 32.2 °F /  0.1 °C 30 in /  1017.2 hPa WSW 2 mph /  3.2 km/h 6 mph /  9.7 km/h 80 % 0 in /  0.0 mm
23:17 37.8 °F /  3.2 °C 32.5 °F /  0.3 °C 30 in /  1017.2 hPa West 1 mph /  1.6 km/h 8 mph /  12.9 km/h 81 % 0 in /  0.0 mm
23:22 37.8 °F /  3.2 °C 32.2 °F /  0.1 °C 30 in /  1017.2 hPa West 2 mph /  3.2 km/h 8 mph /  12.9 km/h 80 % 0 in /  0.0 mm
23:27 37.8 °F /  3.2 °C 32.2 °F /  0.1 °C 30 in /  1017.2 hPa WSW 5 mph /  8.0 km/h 8 mph /  12.9 km/h 80 % 0 in /  0.0 mm
23:32 37.8 °F /  3.2 °C 32.2 °F /  0.1 °C 30 in /  1017.2 hPa West 7 mph /  11.3 km/h 10 mph /  16.1 km/h 80 % 0 in /  0.0 mm
23:37 37.8 °F /  3.2 °C 32.2 °F /  0.1 °C 30 in /  1017.2 hPa West 6 mph /  9.7 km/h 10 mph /  16.1 km/h 80 % 0 in /  0.0 mm
23:42 37.9 °F /  3.3 °C 32.4 °F /  0.2 °C 30 in /  1017.2 hPa WNW 2 mph /  3.2 km/h 15 mph /  24.1 km/h 80 % 0 in /  0.0 mm
23:47 37.9 °F /  3.3 °C 32.4 °F /  0.2 °C 30 in /  1017.2 hPa West 8 mph /  12.9 km/h 15 mph /  24.1 km/h 80 % 0 in /  0.0 mm
23:52 37.9 °F /  3.3 °C 32.4 °F /  0.2 °C 30.1 in /  1017.5 hPa WNW 5 mph /  8.0 km/h 15 mph /  24.1 km/h 80 % 0 in /  0.0 mm
23:57 37.8 °F /  3.2 °C 32.2 °F /  0.1 °C 30.1 in /  1017.5 hPa West 3 mph /  4.8 km/h 15 mph /  24.1 km/h 80 % 0 in /  0.0 mm
Meteo18
Compliments of Weather Underground - 4 mb

Script developed by  Jim McMurry - jmcmurry@mwt.net Adapted for the template by  Wim van der Kuil - Leuven-Template.eu

You find our weather info also at:

European Weather Network

Weather Underground

Equipment we use:

Weather-station
Davis Vue

Weather-program
Meteohub

Weather-server
Raspberry PI 2 B+

Provider
1 and 1

Davis Vue

Meteohub

Raspberry PI 2 B+

1 and 1